Rms Voerde — V2AD8 — position and weather

sailwx.info

Track history (hours):
 
Tides and Currents Weather Stations Pressure Air Temp Water Temp Dewpoint Dewpoint Depression Visibility Wind Speed Wind Dir Waves Ship Positions

Rms Voerde

Last reported at 2016-Dec-09 14:33 UTC. Time now 2016-Dec-10 18:37 UTC.
Position N 67°40' E 014°00'.

Length 90 m; draft 3.6 m.

Type: Ship. MMSI: 304010905.

Date/timePositionNaut miles runAvg speedWind from/ knotsBaromVisibWave heightAir tempDewpointWater temp
2016-Dec-09 14:33N 67°40' E 014°00'7110.1
2016-Dec-09 07:32N 66°44' E 012°09'9 9.0
2016-Dec-09 06:33N 66°37' E 011°58'9 9.4
2016-Dec-09 05:33N 66°28' E 011°48'16810.9
2016-Dec-08 14:09N 63°53' E 009°18'711.1
2016-Dec-08 13:30N 63°46' E 009°15'7 5.6
2016-Dec-08 12:20N 63°45' E 009°30'5 6.9
2016-Dec-08 11:33N 63°49' E 009°38'0 0.0
2016-Dec-08 07:22N 63°49' E 009°38'0 0.0
2016-Dec-08 06:31N 63°49' E 009°38'0 0.0
2016-Dec-08 05:28N 63°49' E 009°38'0 0.0
2016-Dec-08 04:31N 63°49' E 009°38'0 0.0
2016-Dec-08 03:16N 63°49' E 009°38'0 0.0
2016-Dec-08 02:22N 63°49' E 009°38'0 0.0
2016-Dec-07 21:16N 63°49' E 009°38'0 0.0
2016-Dec-07 19:28N 63°49' E 009°38'0 0.0
2016-Dec-07 18:22N 63°49' E 009°38'0 0.0
2016-Dec-07 15:22N 63°49' E 009°38'0 0.0
2016-Dec-07 13:16N 63°49' E 009°38'0 0.0
2016-Dec-07 12:28N 63°49' E 009°38'0 0.0
2016-Dec-07 11:28N 63°49' E 009°38'0 0.0
2016-Dec-07 10:28N 63°49' E 009°38'0 0.0
2016-Dec-07 09:04N 63°49' E 009°38'0 0.0
2016-Dec-07 08:16N 63°49' E 009°38'0 0.0
2016-Dec-07 07:28N 63°49' E 009°38'0 0.0
2016-Dec-06 14:04N 63°49' E 009°38'0 0.0
2016-Dec-06 13:22N 63°49' E 009°38'0 0.0
2016-Dec-06 12:16N 63°49' E 009°38'0 0.0
2016-Dec-06 11:28N 63°49' E 009°38'0 0.0
2016-Dec-05 20:25N 63°49' E 009°38'0 0.0
2016-Dec-05 17:07N 63°49' E 009°38'0 0.0
2016-Dec-05 16:31N 63°49' E 009°38'0 0.0
2016-Dec-05 15:28N 63°49' E 009°38'0 0.1
2016-Dec-05 14:33N 63°49' E 009°39'8 8.5
2016-Dec-05 13:33N 63°41' E 009°30'1010.1
2016-Dec-05 12:32N 63°33' E 009°17'3511.6
2016-Dec-05 09:33N 63°16' E 008°09'1110.9
2016-Dec-05 08:33N 63°14' E 007°46'10 9.7
2016-Dec-05 07:33N 63°13' E 007°24'10 9.9
2016-Dec-05 06:33N 63°08' E 007°05'259 9.3
2016-Dec-04 02:33N 58°56' E 004°58'9 9.2
2016-Dec-04 01:33N 58°48' E 005°06'10 9.8
2016-Dec-04 00:33N 58°39' E 005°12'1010.2
2016-Dec-03 23:33N 58°29' E 005°19'159 9.9
2016-Dec-03 07:32N 55°56' E 006°35'30 9.9
2016-Dec-03 04:31N 55°27' E 006°50'1010.2
2016-Dec-03 03:33N 55°18' E 006°55'10 9.9
2016-Dec-03 02:33N 55°08' E 006°59'10 9.8
2016-Dec-03 01:33N 54°59' E 007°03'9 9.3
2016-Dec-03 00:33N 54°50' E 007°08'82 9.1
2016-Dec-02 15:33N 53°41' E 008°22'1111.1
2016-Dec-02 14:33N 53°32' E 008°34'9 8.7
2016-Dec-02 13:34N 53°23' E 008°30'9 8.5
2016-Dec-02 12:33N 53°15' E 008°29'7 7.5
2016-Dec-02 11:34N 53°10' E 008°38'4 3.9
2016-Dec-02 10:34N 53°07' E 008°43'1 0.6
2016-Dec-02 09:31N 53°07' E 008°44'0 0.0
2016-Dec-02 08:31N 53°07' E 008°44'0 0.0
2016-Dec-02 07:31N 53°07' E 008°44'0 0.0
2016-Dec-02 06:31N 53°07' E 008°44'0 0.0
2016-Dec-02 05:31N 53°07' E 008°44'0 0.0
2016-Dec-02 04:31N 53°07' E 008°44'0 0.0
2016-Dec-02 03:31N 53°07' E 008°44'0 0.0
2016-Dec-02 02:31N 53°07' E 008°44'0 0.0
2016-Dec-02 01:31N 53°07' E 008°44'0 0.0
2016-Dec-02 00:31N 53°07' E 008°44'0 0.0
2016-Dec-01 23:31N 53°07' E 008°44'0 0.0
2016-Dec-01 22:31N 53°07' E 008°44'0 0.0
2016-Dec-01 21:31N 53°07' E 008°44'0 0.0
2016-Dec-01 20:31N 53°07' E 008°44'0 0.0
2016-Dec-01 19:31N 53°07' E 008°44'0 0.0
2016-Dec-01 18:31N 53°07' E 008°44'0 0.0
2016-Dec-01 17:31N 53°07' E 008°44'0 0.0
2016-Dec-01 16:31N 53°07' E 008°44'0 0.0
2016-Dec-01 15:31N 53°07' E 008°44'0 0.0
2016-Dec-01 14:31N 53°07' E 008°44'0 0.0
2016-Dec-01 13:31N 53°07' E 008°44'0 0.0
2016-Dec-01 12:31N 53°07' E 008°44'0 0.0
2016-Dec-01 11:31N 53°07' E 008°44'0 0.0
2016-Dec-01 10:31N 53°07' E 008°44'0 0.0
2016-Dec-01 09:33N 53°07' E 008°44'0 0.0
2016-Dec-01 08:31N 53°07' E 008°44'0 0.0
2016-Dec-01 07:31N 53°07' E 008°44'0 0.0
2016-Dec-01 06:31N 53°07' E 008°44'0 0.0
2016-Dec-01 05:31N 53°07' E 008°44'0 0.0
2016-Dec-01 04:31N 53°07' E 008°44'0 0.0
2016-Dec-01 03:31N 53°07' E 008°44'0 0.0
2016-Dec-01 02:31N 53°07' E 008°44'0 0.0
2016-Dec-01 01:31N 53°07' E 008°44'0 0.0
2016-Dec-01 00:31N 53°07' E 008°44'0 0.0
2016-Nov-30 23:31N 53°07' E 008°44'0 0.0
2016-Nov-30 22:31N 53°07' E 008°44'0 0.0
2016-Nov-30 21:31N 53°07' E 008°44'0 0.0
2016-Nov-30 20:32N 53°07' E 008°44'0 0.0
2016-Nov-30 19:31N 53°07' E 008°44'0 0.0
2016-Nov-30 18:31N 53°07' E 008°44'0 0.0
2016-Nov-30 17:31N 53°07' E 008°44'0 0.0
2016-Nov-30 16:33N 53°07' E 008°44'0 0.0
2016-Nov-30 15:31N 53°07' E 008°44'0 0.0
2016-Nov-30 14:31N 53°07' E 008°44'0 0.0
2016-Nov-30 13:31N 53°07' E 008°44'1 0.8
2016-Nov-30 12:34N 53°07' E 008°43'4 4.0
2016-Nov-30 11:33N 53°10' E 008°37'9 9.1
2016-Nov-30 10:34N 53°17' E 008°29'1212.5
2016-Nov-30 09:33N 53°30' E 008°30'3 2.4
2016-Nov-30 08:28N 53°31' E 008°34'0 0.0
2016-Nov-30 07:31N 53°31' E 008°34'0 0.0
2016-Nov-30 06:31N 53°31' E 008°34'0 0.0
2016-Nov-30 05:31N 53°31' E 008°34'0 0.0
2016-Nov-30 04:31N 53°31' E 008°34'0 0.0
2016-Nov-30 03:31N 53°31' E 008°34'0 0.0
2016-Nov-30 02:31N 53°31' E 008°34'0 0.0
2016-Nov-30 01:31N 53°31' E 008°34'278286.6
2016-Nov-30 00:33N 57°59' E 006°20'6 6.4
2016-Nov-29 23:33N 58°05' E 006°18'7 6.9
2016-Nov-29 22:33N 58°12' E 006°15'6 6.3
2016-Nov-29 21:33N 58°18' E 006°15'297286.9
2016-Nov-29 20:31N 53°31' E 008°34'0 0.3
2016-Nov-29 19:29N 53°31' E 008°33'0 0.0
2016-Nov-29 18:32N 53°31' E 008°33'0 0.0
2016-Nov-29 17:32N 53°31' E 008°33'0 0.0
2016-Nov-29 16:32N 53°31' E 008°33'0 0.0
2016-Nov-29 15:32N 53°31' E 008°33'  
Track history (hours):
 
Tides and Currents Weather Stations Pressure Air Temp Water Temp Dewpoint Dewpoint Depression Visibility Wind Speed Wind Dir Waves Ship Positions

Rms Voerde

Last reported at 2016-Dec-09 14:33 UTC. Time now 2016-Dec-10 18:37 UTC.
Position N 67°40' E 014°00'.

Length 90 m; draft 3.6 m.

Type: Ship. MMSI: 304010905.

Date/timePositionNaut miles runAvg speedWind from/ knotsBaromVisibWave heightAir tempDewpointWater temp
2016-Dec-09 14:33N 67°40' E 014°00'7110.1
2016-Dec-09 07:32N 66°44' E 012°09'9 9.0
2016-Dec-09 06:33N 66°37' E 011°58'9 9.4
2016-Dec-09 05:33N 66°28' E 011°48'16810.9
2016-Dec-08 14:09N 63°53' E 009°18'711.1
2016-Dec-08 13:30N 63°46' E 009°15'7 5.6
2016-Dec-08 12:20N 63°45' E 009°30'5 6.9
2016-Dec-08 11:33N 63°49' E 009°38'0 0.0
2016-Dec-08 07:22N 63°49' E 009°38'0 0.0
2016-Dec-08 06:31N 63°49' E 009°38'0 0.0
2016-Dec-08 05:28N 63°49' E 009°38'0 0.0
2016-Dec-08 04:31N 63°49' E 009°38'0 0.0
2016-Dec-08 03:16N 63°49' E 009°38'0 0.0
2016-Dec-08 02:22N 63°49' E 009°38'0 0.0
2016-Dec-07 21:16N 63°49' E 009°38'0 0.0
2016-Dec-07 19:28N 63°49' E 009°38'0 0.0
2016-Dec-07 18:22N 63°49' E 009°38'0 0.0
2016-Dec-07 15:22N 63°49' E 009°38'0 0.0
2016-Dec-07 13:16N 63°49' E 009°38'0 0.0
2016-Dec-07 12:28N 63°49' E 009°38'0 0.0
2016-Dec-07 11:28N 63°49' E 009°38'0 0.0
2016-Dec-07 10:28N 63°49' E 009°38'0 0.0
2016-Dec-07 09:04N 63°49' E 009°38'0 0.0
2016-Dec-07 08:16N 63°49' E 009°38'0 0.0
2016-Dec-07 07:28N 63°49' E 009°38'0 0.0
2016-Dec-06 14:04N 63°49' E 009°38'0 0.0
2016-Dec-06 13:22N 63°49' E 009°38'0 0.0
2016-Dec-06 12:16N 63°49' E 009°38'0 0.0
2016-Dec-06 11:28N 63°49' E 009°38'0 0.0
2016-Dec-05 20:25N 63°49' E 009°38'0 0.0
2016-Dec-05 17:07N 63°49' E 009°38'0 0.0
2016-Dec-05 16:31N 63°49' E 009°38'0 0.0
2016-Dec-05 15:28N 63°49' E 009°38'0 0.1
2016-Dec-05 14:33N 63°49' E 009°39'8 8.5
2016-Dec-05 13:33N 63°41' E 009°30'1010.1
2016-Dec-05 12:32N 63°33' E 009°17'3511.6
2016-Dec-05 09:33N 63°16' E 008°09'1110.9
2016-Dec-05 08:33N 63°14' E 007°46'10 9.7
2016-Dec-05 07:33N 63°13' E 007°24'10 9.9
2016-Dec-05 06:33N 63°08' E 007°05'259 9.3
2016-Dec-04 02:33N 58°56' E 004°58'9 9.2
2016-Dec-04 01:33N 58°48' E 005°06'10 9.8
2016-Dec-04 00:33N 58°39' E 005°12'1010.2
2016-Dec-03 23:33N 58°29' E 005°19'159 9.9
2016-Dec-03 07:32N 55°56' E 006°35'30 9.9
2016-Dec-03 04:31N 55°27' E 006°50'1010.2
2016-Dec-03 03:33N 55°18' E 006°55'10 9.9
2016-Dec-03 02:33N 55°08' E 006°59'10 9.8
2016-Dec-03 01:33N 54°59' E 007°03'9 9.3
2016-Dec-03 00:33N 54°50' E 007°08'82 9.1
2016-Dec-02 15:33N 53°41' E 008°22'1111.1
2016-Dec-02 14:33N 53°32' E 008°34'9 8.7
2016-Dec-02 13:34N 53°23' E 008°30'9 8.5
2016-Dec-02 12:33N 53°15' E 008°29'7 7.5
2016-Dec-02 11:34N 53°10' E 008°38'4 3.9
2016-Dec-02 10:34N 53°07' E 008°43'1 0.6
2016-Dec-02 09:31N 53°07' E 008°44'0 0.0
2016-Dec-02 08:31N 53°07' E 008°44'0 0.0
2016-Dec-02 07:31N 53°07' E 008°44'0 0.0
2016-Dec-02 06:31N 53°07' E 008°44'0 0.0
2016-Dec-02 05:31N 53°07' E 008°44'0 0.0
2016-Dec-02 04:31N 53°07' E 008°44'0 0.0
2016-Dec-02 03:31N 53°07' E 008°44'0 0.0
2016-Dec-02 02:31N 53°07' E 008°44'0 0.0
2016-Dec-02 01:31N 53°07' E 008°44'0 0.0
2016-Dec-02 00:31N 53°07' E 008°44'0 0.0
2016-Dec-01 23:31N 53°07' E 008°44'0 0.0
2016-Dec-01 22:31N 53°07' E 008°44'0 0.0
2016-Dec-01 21:31N 53°07' E 008°44'0 0.0
2016-Dec-01 20:31N 53°07' E 008°44'0 0.0
2016-Dec-01 19:31N 53°07' E 008°44'0 0.0
2016-Dec-01 18:31N 53°07' E 008°44'0 0.0
2016-Dec-01 17:31N 53°07' E 008°44'0 0.0
2016-Dec-01 16:31N 53°07' E 008°44'0 0.0
2016-Dec-01 15:31N 53°07' E 008°44'0 0.0
2016-Dec-01 14:31N 53°07' E 008°44'0 0.0
2016-Dec-01 13:31N 53°07' E 008°44'0 0.0
2016-Dec-01 12:31N 53°07' E 008°44'0 0.0
2016-Dec-01 11:31N 53°07' E 008°44'0 0.0
2016-Dec-01 10:31N 53°07' E 008°44'0 0.0
2016-Dec-01 09:33N 53°07' E 008°44'0 0.0
2016-Dec-01 08:31N 53°07' E 008°44'0 0.0
2016-Dec-01 07:31N 53°07' E 008°44'0 0.0
2016-Dec-01 06:31N 53°07' E 008°44'0 0.0
2016-Dec-01 05:31N 53°07' E 008°44'0 0.0
2016-Dec-01 04:31N 53°07' E 008°44'0 0.0
2016-Dec-01 03:31N 53°07' E 008°44'0 0.0
2016-Dec-01 02:31N 53°07' E 008°44'0 0.0
2016-Dec-01 01:31N 53°07' E 008°44'0 0.0
2016-Dec-01 00:31N 53°07' E 008°44'0 0.0
2016-Nov-30 23:31N 53°07' E 008°44'0 0.0
2016-Nov-30 22:31N 53°07' E 008°44'0 0.0
2016-Nov-30 21:31N 53°07' E 008°44'0 0.0
2016-Nov-30 20:32N 53°07' E 008°44'0 0.0
2016-Nov-30 19:31N 53°07' E 008°44'0 0.0
2016-Nov-30 18:31N 53°07' E 008°44'0 0.0
2016-Nov-30 17:31N 53°07' E 008°44'0 0.0
2016-Nov-30 16:33N 53°07' E 008°44'0 0.0
2016-Nov-30 15:31N 53°07' E 008°44'0 0.0
2016-Nov-30 14:31N 53°07' E 008°44'0 0.0
2016-Nov-30 13:31N 53°07' E 008°44'1 0.8
2016-Nov-30 12:34N 53°07' E 008°43'4 4.0
2016-Nov-30 11:33N 53°10' E 008°37'9 9.1
2016-Nov-30 10:34N 53°17' E 008°29'1212.5
2016-Nov-30 09:33N 53°30' E 008°30'3 2.4
2016-Nov-30 08:28N 53°31' E 008°34'0 0.0
2016-Nov-30 07:31N 53°31' E 008°34'0 0.0
2016-Nov-30 06:31N 53°31' E 008°34'0 0.0
2016-Nov-30 05:31N 53°31' E 008°34'0 0.0
2016-Nov-30 04:31N 53°31' E 008°34'0 0.0
2016-Nov-30 03:31N 53°31' E 008°34'0 0.0
2016-Nov-30 02:31N 53°31' E 008°34'0 0.0
2016-Nov-30 01:31N 53°31' E 008°34'278286.6
2016-Nov-30 00:33N 57°59' E 006°20'6 6.4
2016-Nov-29 23:33N 58°05' E 006°18'7 6.9
2016-Nov-29 22:33N 58°12' E 006°15'6 6.3
2016-Nov-29 21:33N 58°18' E 006°15'297286.9
2016-Nov-29 20:31N 53°31' E 008°34'0 0.3
2016-Nov-29 19:29N 53°31' E 008°33'0 0.0
2016-Nov-29 18:32N 53°31' E 008°33'0 0.0
2016-Nov-29 17:32N 53°31' E 008°33'0 0.0
2016-Nov-29 16:32N 53°31' E 008°33'0 0.0
2016-Nov-29 15:32N 53°31' E 008°33'  

Dump ship's entire track history